Time;durP1;ratioP1;P1;durP2;ratioP2;P2;SDS_P1;SDS_P2;PMS_P1;PMS_P2;Temp;Humidity;BMP_temperature;BMP_pressure;BME280_temperature;BME280_humidity;BME280_pressure;Samples;Min_cycle;Max_cycle;Signal;HPM_P1;HPM_P2
2023/03/30 00:00:41;;;;;;;26.07;21.13;;;;;;;9.47;100.00;100872.00;5050565;28;20202;-73
2023/03/30 00:03:08;;;;;;;25.00;20.67;;;;;;;9.50;100.00;100874.63;5032403;28;20551;-73
2023/03/30 00:05:35;;;;;;;26.53;19.73;;;;;;;9.49;100.00;100860.13;5050518;28;20281;-72
2023/03/30 00:08:01;;;;;;;25.33;21.30;;;;;;;9.48;100.00;100856.69;5047245;28;20241;-72
2023/03/30 00:10:28;;;;;;;28.57;22.60;;;;;;;9.52;100.00;100853.38;5016008;28;20189;-72
2023/03/30 00:12:53;;;;;;;27.00;22.00;;;;;;;9.52;100.00;100853.38;5046311;28;20564;-72
2023/03/30 00:15:22;;;;;;;27.73;22.47;;;;;;;9.53;100.00;100849.13;5029332;28;20194;-72
2023/03/30 00:17:49;;;;;;;29.70;22.17;;;;;;;9.54;100.00;100859.38;5049959;28;20596;-72
2023/03/30 00:20:15;;;;;;;28.87;22.73;;;;;;;9.54;100.00;100851.72;5032141;28;20201;-72
2023/03/30 00:22:42;;;;;;;29.13;22.57;;;;;;;9.55;100.00;100852.59;5049710;28;20216;-74
2023/03/30 00:25:10;;;;;;;29.53;22.47;;;;;;;9.55;100.00;100844.94;5047303;28;20281;-71
2023/03/30 00:27:38;;;;;;;29.40;21.53;;;;;;;9.55;100.00;100839.81;5032057;28;20225;-71
2023/03/30 00:30:06;;;;;;;28.60;22.30;;;;;;;9.60;100.00;100845.91;5049611;28;20189;-72
2023/03/30 00:32:33;;;;;;;27.57;22.23;;;;;;;9.61;100.00;100838.28;5031553;28;20193;-72
2023/03/30 00:34:59;;;;;;;27.93;22.00;;;;;;;9.61;100.00;100833.16;5031230;28;20217;-71
2023/03/30 00:37:24;;;;;;;31.47;21.33;;;;;;;9.62;100.00;100826.31;5031709;28;20200;-72
2023/03/30 00:39:52;;;;;;;27.60;20.87;;;;;;;9.62;100.00;100829.75;5032124;28;20212;-73
2023/03/30 00:42:18;;;;;;;26.90;21.83;;;;;;;9.62;100.00;100823.78;5046535;28;20199;-72
2023/03/30 00:44:56;;;;;;;28.13;21.63;;;;;;;9.65;100.00;100822.19;5023694;28;20213;-71
2023/03/30 00:47:22;;;;;;;29.90;21.60;;;;;;;9.63;100.00;100820.41;5044182;28;20228;-71
2023/03/30 00:49:48;;;;;;;27.33;21.63;;;;;;;9.66;100.00;100803.44;5048849;28;20193;-71
2023/03/30 00:52:18;;;;;;;27.03;21.60;;;;;;;9.65;100.00;100793.19;5042325;28;20196;-71
2023/03/30 00:54:46;;;;;;;27.63;21.40;;;;;;;9.65;100.00;100793.19;5047470;28;20216;-72
2023/03/30 00:57:12;;;;;;;26.00;20.30;;;;;;;9.67;100.00;100792.38;5030803;28;20189;-71
2023/03/30 00:59:39;;;;;;;28.13;20.60;;;;;;;9.67;100.00;100784.72;5046393;28;20647;-71
2023/03/30 01:02:05;;;;;;;28.23;19.97;;;;;;;9.68;100.00;100772.81;5031257;28;20255;-71
2023/03/30 01:04:30;;;;;;;27.40;20.87;;;;;;;9.69;100.00;100774.53;5017923;28;20213;-71
2023/03/30 01:06:56;;;;;;;27.73;20.73;;;;;;;9.69;100.00;100754.06;5014963;28;20347;-72
2023/03/30 01:09:23;;;;;;;25.63;20.70;;;;;;;9.70;100.00;100745.56;5045444;28;20186;-71
2023/03/30 01:11:49;;;;;;;25.17;19.70;;;;;;;9.68;100.00;100742.13;5031399;28;20186;-71
2023/03/30 01:14:15;;;;;;;26.53;20.57;;;;;;;9.65;100.00;100734.38;5048589;28;20220;-71
2023/03/30 01:16:41;;;;;;;28.83;21.90;;;;;;;9.66;100.00;100741.22;5048390;28;20663;-71
2023/03/30 01:19:38;;;;;;;26.60;20.73;;;;;;;9.66;100.00;100720.75;5014025;28;20194;-71
2023/03/30 01:22:25;;;;;;;26.17;19.63;;;;;;;9.64;100.00;100720.72;5028202;28;20200;-71
2023/03/30 01:25:19;;;;;;;26.43;20.70;;;;;;;9.64;100.00;100722.44;5013501;28;20329;-72
2023/03/30 01:28:03;;;;;;;28.00;20.40;;;;;;;9.63;100.00;100720.72;5031031;28;20224;-72
2023/03/30 01:30:42;;;;;;;23.73;19.07;;;;;;;9.66;100.00;100725.88;5030927;28;20277;-71
2023/03/30 01:33:08;;;;;;;26.53;20.33;;;;;;;9.63;100.00;100703.66;5033212;28;20576;-71
2023/03/30 01:35:47;;;;;;;26.60;20.43;;;;;;;9.64;100.00;100701.97;5030565;28;20268;-72
2023/03/30 01:38:43;;;;;;;25.83;20.07;;;;;;;9.62;100.00;100701.94;5048083;28;20704;-72
2023/03/30 01:41:21;;;;;;;28.43;20.27;;;;;;;9.61;100.00;100700.22;5011393;28;20283;-71
2023/03/30 01:44:19;;;;;;;25.73;19.63;;;;;;;9.62;100.00;100698.50;5048295;28;20674;-71
2023/03/30 01:46:54;;;;;;;24.50;19.47;;;;;;;9.61;100.00;100705.34;5026604;28;20197;-72
2023/03/30 01:49:35;;;;;;;24.27;19.63;;;;;;;9.62;100.00;100691.72;5030157;28;20702;-71
2023/03/30 01:52:07;;;;;;;25.33;19.73;;;;;;;9.61;100.00;100678.91;5030169;28;20600;-71
2023/03/30 01:54:42;;;;;;;29.00;21.27;;;;;;;9.60;100.00;100700.19;5030077;28;20209;-71
2023/03/30 01:57:16;;;;;;;27.57;20.37;;;;;;;9.60;100.00;100695.09;5014251;28;20185;-71
2023/03/30 01:59:54;;;;;;;27.43;19.20;;;;;;;9.61;100.00;100678.91;5015807;28;20246;-71
2023/03/30 02:02:25;;;;;;;26.23;20.90;;;;;;;9.58;100.00;100659.25;5033241;28;20549;-72
2023/03/30 02:04:53;;;;;;;29.63;20.80;;;;;;;9.61;100.00;100661.88;5033898;28;20209;-71
2023/03/30 02:07:24;;;;;;;26.67;19.37;;;;;;;9.61;100.00;100651.66;5051965;28;20674;-71
2023/03/30 02:09:55;;;;;;;26.23;20.77;;;;;;;9.59;100.00;100632.00;5037159;28;20662;-71
2023/03/30 02:12:23;;;;;;;29.97;21.97;;;;;;;9.58;100.00;100645.63;5049866;28;20300;-73
2023/03/30 02:14:48;;;;;;;28.93;21.93;;;;;;;9.56;100.00;100630.25;5034539;28;20800;-72
2023/03/30 02:17:17;;;;;;;26.90;21.30;;;;;;;9.55;100.00;100638.78;5034391;28;20197;-74
2023/03/30 02:19:46;;;;;;;29.10;21.93;;;;;;;9.54;100.00;100648.97;5028778;28;20193;-73
2023/03/30 02:22:14;;;;;;;31.13;22.87;;;;;;;9.54;100.00;100636.19;5051279;28;20291;-72
2023/03/30 02:24:43;;;;;;;28.47;22.33;;;;;;;9.56;100.00;100629.38;5033763;28;20213;-72
2023/03/30 02:27:09;;;;;;;31.30;21.80;;;;;;;9.52;100.00;100625.03;5051662;28;20213;-73
2023/03/30 02:29:37;;;;;;;30.40;22.90;;;;;;;9.47;100.00;100627.53;5033916;28;20659;-72
2023/03/30 02:32:04;;;;;;;27.43;21.90;;;;;;;9.46;100.00;100617.25;5034273;28;20189;-72
2023/03/30 02:34:48;;;;;;;29.10;22.40;;;;;;;9.46;100.00;100612.16;5033963;28;20220;-72
2023/03/30 02:37:32;;;;;;;31.07;22.87;;;;;;;9.45;100.00;100610.44;5034171;28;20799;-72
2023/03/30 02:40:12;;;;;;;28.50;21.73;;;;;;;9.45;100.00;100608.72;5029950;28;20266;-72
2023/03/30 02:43:10;;;;;;;29.07;22.00;;;;;;;9.45;100.00;100607.88;5049934;28;20197;-72
2023/03/30 02:45:51;;;;;;;29.90;22.00;;;;;;;9.47;100.00;100607.06;5049674;28;20238;-72
2023/03/30 02:48:29;;;;;;;30.20;22.20;;;;;;;9.47;100.00;100601.09;5033344;28;20706;-72
2023/03/30 02:51:37;;;;;;;31.63;22.53;;;;;;;9.47;100.00;100590.88;5029862;28;20280;-72
2023/03/30 02:54:25;;;;;;;32.60;21.73;;;;;;;9.44;100.00;100568.66;5024444;28;20272;-72
2023/03/30 02:57:40;;;;;;;31.63;21.80;;;;;;;9.44;100.00;100567.84;5012120;28;20240;-72
2023/03/30 03:00:43;;;;;;;27.97;20.33;;;;;;;9.42;100.00;100557.56;5048486;28;20196;-72
2023/03/30 03:03:23;;;;;;;30.63;22.00;;;;;;;9.43;100.00;100549.06;5032863;28;20263;-72
2023/03/30 03:05:54;;;;;;;30.43;22.17;;;;;;;9.45;100.00;100544.00;5038117;28;20190;-72
2023/03/30 03:08:33;;;;;;;30.63;22.07;;;;;;;9.45;100.00;100541.44;5034886;28;20205;-72
2023/03/30 03:10:59;;;;;;;32.67;22.33;;;;;;;9.43;100.00;100538.84;5032636;28;20235;-72
2023/03/30 03:13:27;;;;;;;32.17;21.90;;;;;;;9.43;100.00;100535.41;5029476;28;20302;-72
2023/03/30 03:15:55;;;;;;;30.80;22.43;;;;;;;9.42;100.00;100533.69;5024399;28;20244;-72
2023/03/30 03:18:23;;;;;;;27.13;21.00;;;;;;;9.42;100.00;100531.16;5031695;28;20205;-72
2023/03/30 03:20:49;;;;;;;31.53;22.17;;;;;;;9.39;100.00;100515.75;5030980;28;20259;-72
2023/03/30 03:23:16;;;;;;;28.93;22.50;;;;;;;9.36;100.00;100508.03;5030066;28;20217;-72
2023/03/30 03:25:48;;;;;;;31.40;23.63;;;;;;;9.35;100.00;100506.34;5033315;28;20186;-72
2023/03/30 03:28:15;;;;;;;27.00;21.07;;;;;;;9.35;100.00;100507.16;5030762;28;20212;-72
2023/03/30 03:30:47;;;;;;;32.20;23.40;;;;;;;9.33;100.00;100501.19;5031625;28;20191;-72
2023/03/30 03:33:19;;;;;;;31.00;22.70;;;;;;;9.31;100.00;100492.63;5030446;28;20297;-72
2023/03/30 03:35:52;;;;;;;29.17;21.37;;;;;;;9.29;100.00;100490.88;5036680;28;20189;-72
2023/03/30 03:38:23;;;;;;;27.70;21.70;;;;;;;9.28;100.00;100499.38;5032719;28;20197;-72
2023/03/30 03:40:50;;;;;;;27.27;20.07;;;;;;;9.25;100.00;100481.41;5034761;28;20190;-71
2023/03/30 03:43:16;;;;;;;25.93;19.90;;;;;;;9.25;100.00;100484.84;5032573;28;20305;-71
2023/03/30 03:45:45;;;;;;;27.13;21.30;;;;;;;9.26;100.00;100484.00;5032420;28;20200;-72
2023/03/30 03:48:11;;;;;;;25.10;19.27;;;;;;;9.26;100.00;100480.63;5032240;28;20206;-71
2023/03/30 03:50:50;;;;;;;26.20;20.43;;;;;;;9.28;100.00;100476.38;5051069;28;20188;-71
2023/03/30 03:53:16;;;;;;;26.10;20.07;;;;;;;9.27;100.00;100469.56;5015335;28;20221;-71
2023/03/30 03:55:43;;;;;;;27.77;20.83;;;;;;;9.27;100.00;100472.09;5032645;28;20193;-72
2023/03/30 03:58:08;;;;;;;26.33;19.63;;;;;;;9.29;100.00;100465.31;5034383;28;20188;-71
2023/03/30 04:00:34;;;;;;;23.37;18.90;;;;;;;9.29;100.00;100465.31;5032486;28;20202;-71
2023/03/30 04:03:00;;;;;;;25.87;19.43;;;;;;;9.32;100.00;100457.72;5029187;28;20198;-71
2023/03/30 04:05:26;;;;;;;24.80;19.87;;;;;;;9.29;100.00;100450.88;5031534;28;20200;-71
2023/03/30 04:07:55;;;;;;;26.13;19.87;;;;;;;9.30;100.00;100454.28;5032688;28;20279;-71
2023/03/30 04:10:22;;;;;;;24.03;20.13;;;;;;;9.29;100.00;100444.88;5030794;28;20268;-71
2023/03/30 04:13:04;;;;;;;24.77;19.23;;;;;;;9.31;100.00;100453.44;5045508;28;20206;-72
2023/03/30 04:15:48;;;;;;;25.57;19.10;;;;;;;9.33;100.00;100449.22;5035561;28;20224;-71
2023/03/30 04:18:30;;;;;;;25.67;19.43;;;;;;;9.34;100.00;100446.69;5031508;28;20190;-72
2023/03/30 04:21:16;;;;;;;25.00;18.93;;;;;;;9.37;100.00;100445.88;5049847;28;20197;-74
2023/03/30 04:23:57;;;;;;;23.97;18.53;;;;;;;9.34;100.00;100443.25;5026830;28;20205;-71
2023/03/30 04:26:44;;;;;;;23.07;16.90;;;;;;;9.36;100.00;100446.72;5044765;28;20268;-71
2023/03/30 04:29:28;;;;;;;23.40;17.90;;;;;;;9.36;100.00;100434.78;5045527;28;20281;-73
2023/03/30 04:32:12;;;;;;;26.37;19.13;;;;;;;9.38;100.00;100432.28;5046748;28;20178;-71
2023/03/30 04:34:46;;;;;;;26.73;18.47;;;;;;;9.36;100.00;100429.69;5031603;28;20216;-72
2023/03/30 04:37:31;;;;;;;26.20;18.27;;;;;;;9.37;100.00;100431.44;5031216;28;20207;-73
2023/03/30 04:40:27;;;;;;;24.87;18.67;;;;;;;9.34;100.00;100425.38;4960022;28;20201;-72
2023/03/30 04:43:04;;;;;;;24.07;19.03;;;;;;;9.35;100.00;100424.56;5029738;28;20201;-73
2023/03/30 04:45:55;;;;;;;26.77;18.33;;;;;;;9.35;100.00;100414.34;5043757;28;20248;-71
2023/03/30 04:48:50;;;;;;;25.40;18.10;;;;;;;9.34;100.00;100410.94;5029892;28;20754;-73
2023/03/30 04:51:36;;;;;;;28.37;18.77;;;;;;;9.34;100.00;100402.38;5049939;28;20196;-71
2023/03/30 04:54:04;;;;;;;23.03;17.97;;;;;;;9.30;100.00;100391.25;5049515;28;20308;-71
2023/03/30 04:56:59;;;;;;;23.40;17.53;;;;;;;9.29;100.00;100402.31;5030709;28;20201;-74
2023/03/30 04:59:41;;;;;;;25.83;18.37;;;;;;;9.32;100.00;100404.94;5024839;28;20182;-72
2023/03/30 05:02:24;;;;;;;21.93;17.13;;;;;;;9.33;100.00;100391.31;5029858;28;20186;-73
2023/03/30 05:05:08;;;;;;;21.63;17.80;;;;;;;9.32;100.00;100392.16;5049857;28;20240;-73
2023/03/30 05:07:46;;;;;;;23.30;17.57;;;;;;;9.33;100.00;100385.34;5016436;28;20690;-73
2023/03/30 05:10:24;;;;;;;21.93;17.43;;;;;;;9.35;100.00;100381.13;5031365;28;20196;-72
2023/03/30 05:13:16;;;;;;;20.63;17.00;;;;;;;9.34;100.00;100375.16;5043900;28;20710;-72
2023/03/30 05:15:53;;;;;;;22.07;17.67;;;;;;;9.36;100.00;100368.38;5033490;28;20285;-72
2023/03/30 05:18:39;;;;;;;21.70;17.03;;;;;;;9.37;100.00;100367.56;5047906;28;20235;-72
2023/03/30 05:21:20;;;;;;;23.30;18.17;;;;;;;9.34;100.00;100371.72;5045849;28;20200;-72
2023/03/30 05:24:13;;;;;;;21.63;17.40;;;;;;;9.38;100.00;100378.63;5030979;28;20214;-72
2023/03/30 05:27:12;;;;;;;21.67;17.67;;;;;;;9.38;100.00;100381.16;5036251;28;20221;-72
2023/03/30 05:29:55;;;;;;;25.13;17.10;;;;;;;9.38;100.00;100373.50;5030139;28;20648;-72
2023/03/30 05:32:43;;;;;;;24.17;17.67;;;;;;;9.38;100.00;100366.72;5040474;28;20202;-72
2023/03/30 05:35:29;;;;;;;23.60;18.67;;;;;;;9.38;100.00;100356.50;5044990;28;20276;-72
2023/03/30 05:38:21;;;;;;;22.73;17.60;;;;;;;9.39;100.00;100350.53;5038720;28;20190;-72
2023/03/30 05:41:18;;;;;;;23.90;17.40;;;;;;;9.42;100.00;100329.28;5000718;28;20193;-71
2023/03/30 05:44:05;;;;;;;22.93;18.10;;;;;;;9.44;100.00;100338.69;5045001;28;20659;-71
2023/03/30 05:46:51;;;;;;;24.23;17.00;;;;;;;9.45;100.00;100350.63;5017594;28;20194;-71
2023/03/30 05:49:35;;;;;;;20.77;16.73;;;;;;;9.45;100.00;100362.56;5044832;28;20200;-71
2023/03/30 05:52:05;;;;;;;23.07;16.83;;;;;;;9.48;100.00;100363.47;5043002;28;20193;-71
2023/03/30 05:54:51;;;;;;;23.00;15.57;;;;;;;9.49;100.00;100383.06;5034385;28;20255;-71
2023/03/30 05:57:27;;;;;;;19.60;15.50;;;;;;;9.50;100.00;100389.88;5028282;28;20650;-71
2023/03/30 06:00:09;;;;;;;19.97;16.27;;;;;;;9.52;100.00;100390.78;5031086;28;20185;-71
2023/03/30 06:02:39;;;;;;;18.03;15.37;;;;;;;9.56;100.00;100384.91;5030491;28;20192;-71
2023/03/30 06:05:11;;;;;;;19.73;14.33;;;;;;;9.62;100.00;100390.09;5026562;28;20277;-71
2023/03/30 06:07:36;;;;;;;24.07;15.17;;;;;;;9.64;100.00;100379.91;5030142;28;20304;-71
2023/03/30 06:10:04;;;;;;;17.47;13.37;;;;;;;9.66;100.00;100384.19;5048460;28;20178;-71
2023/03/30 06:12:31;;;;;;;17.70;12.37;;;;;;;9.71;100.00;100372.34;5029908;28;20528;-71
2023/03/30 06:14:57;;;;;;;16.57;13.07;;;;;;;9.76;100.00;100365.59;5030174;28;20237;-71
2023/03/30 06:17:38;;;;;;;22.93;13.07;;;;;;;9.81;100.00;100351.19;5030057;28;20194;-71
2023/03/30 06:20:11;;;;;;;19.37;12.17;;;;;;;9.88;100.00;100352.13;5025818;28;20236;-71
2023/03/30 06:22:40;;;;;;;16.00;11.30;;;;;;;9.93;100.00;100353.06;4999839;28;20196;-71
2023/03/30 06:25:12;;;;;;;16.00;11.83;;;;;;;9.96;100.00;100345.44;5026922;28;20787;-71
2023/03/30 06:27:39;;;;;;;18.77;11.37;;;;;;;10.01;100.00;100342.09;5030014;28;20210;-71
2023/03/30 06:30:05;;;;;;;14.47;10.93;;;;;;;10.07;100.00;100344.78;5026854;28;20216;-71
2023/03/30 06:32:31;;;;;;;14.97;10.00;;;;;;;10.13;100.00;100344.84;5029105;28;20268;-72
2023/03/30 06:35:15;;;;;;;14.60;10.73;;;;;;;10.11;100.00;100340.53;5028004;28;20192;-71
2023/03/30 06:37:41;;;;;;;15.87;11.03;;;;;;;10.09;100.00;100345.63;5029472;28;20190;-71
2023/03/30 06:40:13;;;;;;;14.80;11.87;;;;;;;10.11;100.00;100341.41;5030464;28;20797;-71
2023/03/30 06:42:43;;;;;;;21.03;12.07;;;;;;;10.17;100.00;100333.81;5013994;28;20193;-71
2023/03/30 06:45:19;;;;;;;18.83;11.80;;;;;;;10.28;100.00;100339.06;5030411;28;20182;-72
2023/03/30 06:47:46;;;;;;;18.30;11.53;;;;;;;10.38;100.00;100335.78;5033914;28;20205;-72
2023/03/30 06:50:13;;;;;;;17.50;11.57;;;;;;;10.47;100.00;100328.19;5034295;28;20244;-71
2023/03/30 06:53:00;;;;;;;14.80;11.47;;;;;;;10.64;100.00;100334.38;5030697;28;20197;-71
2023/03/30 06:55:32;;;;;;;13.77;10.13;;;;;;;10.75;100.00;100325.97;5028760;28;20655;-74
2023/03/30 06:57:58;;;;;;;15.40;10.60;;;;;;;10.82;100.00;100327.72;5034412;28;20174;-71
2023/03/30 07:00:23;;;;;;;17.73;11.03;;;;;;;10.89;100.00;100323.53;5033854;28;20181;-73
2023/03/30 07:03:28;;;;;;;21.73;12.70;;;;;;;11.25;100.00;100321.28;4987556;28;20247;-73
2023/03/30 07:06:14;;;;;;;16.80;10.60;;;;;;;11.44;100.00;100318.03;4989428;28;20354;-72
2023/03/30 07:08:40;;;;;;;17.40;10.20;;;;;;;11.36;100.00;100320.53;5008877;28;20222;-72
2023/03/30 07:11:08;;;;;;;14.37;10.10;;;;;;;11.33;100.00;100323.06;5037503;28;20182;-72
2023/03/30 07:13:36;;;;;;;14.10;10.50;;;;;;;11.36;100.00;100314.53;5033988;28;20232;-72
2023/03/30 07:16:02;;;;;;;12.77;9.70;;;;;;;11.48;100.00;100306.94;5033808;28;20182;-72
2023/03/30 07:18:30;;;;;;;12.87;9.70;;;;;;;11.71;100.00;100316.50;5033211;28;20249;-72
2023/03/30 07:20:58;;;;;;;12.50;8.97;;;;;;;11.85;100.00;100314.88;5033894;28;20294;-72
2023/03/30 07:23:27;;;;;;;12.90;8.43;;;;;;;11.96;100.00;100308.13;5033970;28;20210;-72
2023/03/30 07:25:53;;;;;;;10.93;8.03;;;;;;;12.28;100.00;100310.81;5033032;28;20193;-72
2023/03/30 07:28:23;;;;;;;11.67;7.43;;;;;;;12.17;100.00;100318.47;5028908;28;20211;-72
2023/03/30 07:30:49;;;;;;;12.63;7.47;;;;;;;12.10;100.00;100314.19;5039148;28;20197;-74
2023/03/30 07:33:17;;;;;;;10.73;7.33;;;;;;;11.97;100.00;100309.84;5018097;28;20602;-73
2023/03/30 07:35:45;;;;;;;11.93;7.47;;;;;;;11.95;100.00;100320.94;5031503;28;20193;-73
2023/03/30 07:38:13;;;;;;;11.60;7.53;;;;;;;11.95;100.00;100319.25;5027164;28;20198;-74
2023/03/30 07:40:43;;;;;;;9.23;7.30;;;;;;;12.01;100.00;100303.00;5032824;28;20231;-73
2023/03/30 07:43:09;;;;;;;12.13;7.23;;;;;;;12.09;100.00;100307.34;5031997;28;20201;-73
2023/03/30 07:45:35;;;;;;;9.80;6.70;;;;;;;12.13;100.00;100303.91;5031717;28;20235;-72
2023/03/30 07:48:04;;;;;;;10.43;7.10;;;;;;;12.15;100.00;100306.47;5036886;28;20220;-72
2023/03/30 07:50:29;;;;;;;12.10;7.37;;;;;;;12.18;100.00;100309.06;5033039;28;20558;-73
2023/03/30 07:52:57;;;;;;;8.77;5.93;;;;;;;12.14;100.00;100313.34;5032694;28;20177;-73
2023/03/30 07:55:24;;;;;;;11.20;6.03;;;;;;;12.18;100.00;100327.03;5031874;28;20189;-73
2023/03/30 07:57:57;;;;;;;9.73;6.00;;;;;;;12.24;100.00;100339.91;5029869;28;20558;-67
2023/03/30 08:00:23;;;;;;;10.00;5.43;;;;;;;12.35;100.00;100326.25;5022127;28;20190;-66
2023/03/30 08:03:08;;;;;;;8.87;4.83;;;;;;;12.47;100.00;100325.44;5046048;28;20263;-67
2023/03/30 08:05:34;;;;;;;9.73;5.00;;;;;;;12.41;100.00;100331.44;5029017;28;20189;-68
2023/03/30 08:08:14;;;;;;;11.50;4.80;;;;;;;12.39;100.00;100327.16;5026607;28;20325;-68
2023/03/30 08:10:39;;;;;;;9.50;5.00;;;;;;;12.40;100.00;100326.28;5024698;28;20221;-68
2023/03/30 08:13:05;;;;;;;10.37;4.87;;;;;;;12.40;100.00;100332.25;5030581;28;20225;-68
2023/03/30 08:15:30;;;;;;;8.23;4.83;;;;;;;12.43;100.00;100329.72;5023206;28;20193;-68
2023/03/30 08:17:56;;;;;;;8.03;4.67;;;;;;;12.45;100.00;100327.16;5027512;28;20182;-68
2023/03/30 08:20:22;;;;;;;8.00;4.13;;;;;;;12.51;100.00;100322.91;5041616;28;20187;-68
2023/03/30 08:22:47;;;;;;;7.63;3.80;;;;;;;12.63;100.00;100330.63;5045583;28;20224;-68
2023/03/30 08:25:13;;;;;;;7.17;4.73;;;;;;;12.76;100.00;100332.38;5030284;28;20190;-68
2023/03/30 08:27:38;;;;;;;9.53;4.70;;;;;;;12.95;100.00;100325.56;5048251;28;20205;-68
2023/03/30 08:30:04;;;;;;;9.77;4.20;;;;;;;13.24;100.00;100320.47;5044727;28;20200;-68
2023/03/30 08:32:30;;;;;;;10.60;4.90;;;;;;;13.25;100.00;100315.31;5021745;28;20221;-68
2023/03/30 08:34:55;;;;;;;8.63;4.60;;;;;;;13.34;100.00;100314.47;5029559;28;20213;-68
2023/03/30 08:37:21;;;;;;;7.10;4.37;;;;;;;13.73;100.00;100304.13;5040451;28;20189;-68
2023/03/30 08:39:46;;;;;;;9.73;4.47;;;;;;;14.03;100.00;100307.47;5048638;28;20285;-69
2023/03/30 08:42:31;;;;;;;6.33;4.20;;;;;;;14.45;100.00;100309.06;5042918;28;20192;-69
2023/03/30 08:45:02;;;;;;;6.93;4.30;;;;;;;14.57;100.00;100319.31;5044865;28;20225;-69
2023/03/30 08:47:41;;;;;;;7.13;3.90;;;;;;;14.74;100.00;100304.59;5045312;28;20221;-68
2023/03/30 08:50:32;;;;;;;7.33;4.33;;;;;;;14.74;100.00;100300.28;5045450;28;20276;-69
2023/03/30 08:52:58;;;;;;;8.43;4.30;;;;;;;15.07;100.00;100300.09;5042770;28;20184;-68
2023/03/30 08:55:31;;;;;;;6.87;3.93;;;;;;;15.50;100.00;100301.47;5026580;28;20697;-69
2023/03/30 08:58:08;;;;;;;7.73;3.97;;;;;;;15.33;100.00;100300.72;5031032;28;20566;-68
2023/03/30 09:00:42;;;;;;;7.40;3.77;;;;;;;15.55;100.00;100283.34;5047705;28;20236;-68
2023/03/30 09:03:17;;;;;;;7.63;3.93;;;;;;;15.57;100.00;100297.09;5040027;28;20206;-68
2023/03/30 09:05:50;;;;;;;8.13;4.13;;;;;;;15.92;100.00;100289.81;5043038;28;20185;-68
2023/03/30 09:08:27;;;;;;;8.73;3.70;;;;;;;16.17;100.00;100247.34;5047542;28;20220;-68
2023/03/30 09:10:59;;;;;;;5.87;3.50;;;;;;;16.00;100.00;100260.47;5044692;28;20573;-68
2023/03/30 09:13:31;;;;;;;5.03;3.57;;;;;;;16.36;100.00;100269.50;5046648;28;20682;-67
2023/03/30 09:16:05;;;;;;;7.27;3.57;;;;;;;16.60;100.00;100238.16;5041278;28;20235;-69
2023/03/30 09:18:34;;;;;;;7.07;3.80;;;;;;;16.46;100.00;100234.91;5045581;28;20194;-68
2023/03/30 09:21:02;;;;;;;5.73;3.70;;;;;;;16.58;100.00;100217.50;5028649;28;20650;-68
2023/03/30 09:23:30;;;;;;;5.37;3.30;;;;;;;16.91;100.00;100218.72;5045342;28;20270;-68
2023/03/30 09:26:17;;;;;;;8.73;3.10;;;;;;;17.27;100.00;100212.91;5032280;28;20320;-69
2023/03/30 09:28:52;;;;;;;6.10;3.60;;;;;;;16.83;100.00;100210.22;5046418;28;20595;-69
2023/03/30 09:31:40;;;;;;;7.60;2.90;;;;;;;16.73;100.00;100237.97;5041929;28;20230;-68
2023/03/30 09:34:29;;;;;;;6.37;3.07;;;;;;;16.40;100.00;100251.34;5025065;28;20246;-69
2023/03/30 09:36:55;;;;;;;4.97;3.30;;;;;;;16.18;100.00;100274.88;5044192;28;20247;-68
2023/03/30 09:39:24;;;;;;;7.03;3.50;;;;;;;16.05;100.00;100299.16;5027839;28;20186;-69
2023/03/30 09:42:01;;;;;;;5.73;3.67;;;;;;;15.96;100.00;100301.84;5048434;28;20937;-69
2023/03/30 09:44:40;;;;;;;7.10;3.10;;;;;;;16.06;100.00;100301.72;5040048;28;20726;-69
2023/03/30 09:47:15;;;;;;;6.00;3.20;;;;;;;15.74;100.00;100288.31;5023934;28;20186;-68
2023/03/30 09:49:40;;;;;;;6.47;3.47;;;;;;;15.70;100.00;100284.03;5044231;28;20216;-66
2023/03/30 09:52:07;;;;;;;5.93;3.40;;;;;;;15.55;100.00;100289.38;5024108;28;20216;-68
2023/03/30 09:54:38;;;;;;;7.30;3.27;;;;;;;15.52;100.00;100283.38;5045006;28;20248;-68
2023/03/30 09:57:04;;;;;;;7.00;3.47;;;;;;;15.68;100.00;100290.09;5039662;28;20189;-68
2023/03/30 09:59:33;;;;;;;6.23;3.80;;;;;;;15.78;100.00;100276.22;5043374;28;20201;-68
2023/03/30 10:02:11;;;;;;;4.13;3.17;;;;;;;15.81;100.00;100251.25;5042772;28;20721;-70
2023/03/30 10:04:52;;;;;;;4.57;2.77;;;;;;;16.25;100.00;100241.19;5044347;28;20218;-68
2023/03/30 10:07:41;;;;;;;6.80;2.73;;;;;;;16.74;100.00;100212.94;5042416;28;20280;-68
2023/03/30 10:10:19;;;;;;;4.87;2.60;;;;;;;18.15;100.00;100078.13;5028082;28;20193;-68
2023/03/30 10:12:47;;;;;;;5.30;2.22;;;;;;;19.30;100.00;99848.41;5043112;28;20196;-69
2023/03/30 10:15:19;;;;;;;7.13;2.70;;;;;;;17.21;100.00;100018.91;5044997;28;20246;-68
2023/03/30 10:17:47;;;;;;;6.17;2.60;;;;;;;16.63;100.00;100176.91;5042814;28;20197;-68
2023/03/30 10:20:35;;;;;;;6.03;2.47;;;;;;;16.79;100.00;100185.28;5047535;28;20185;-68
2023/03/30 10:23:05;;;;;;;6.73;2.23;;;;;;;16.85;100.00;100138.63;5047859;28;20566;-68
2023/03/30 10:25:32;;;;;;;5.57;2.47;;;;;;;16.66;100.00;100178.59;5033417;28;20240;-69
2023/03/30 10:28:04;;;;;;;4.43;2.23;;;;;;;17.87;100.00;100036.44;5048160;28;20241;-69
2023/03/30 10:30:32;;;;;;;4.23;2.10;;;;;;;20.61;100.00;99795.22;5048022;28;20747;-69
2023/03/30 10:33:01;;;;;;;4.30;1.97;;;;;;;17.58;100.00;99999.16;5049411;28;20187;-69
2023/03/30 10:35:34;;;;;;;3.97;2.40;;;;;;;17.24;100.00;100124.97;5017632;28;20194;-68
2023/03/30 10:38:02;;;;;;;5.73;2.57;;;;;;;16.98;100.00;100159.09;5047479;28;20188;-68
2023/03/30 10:40:51;;;;;;;4.93;2.23;;;;;;;17.96;100.00;99996.53;5048627;28;20190;-69
2023/03/30 10:43:21;;;;;;;5.80;2.00;;;;;;;22.15;86.40;99637.50;5046064;28;20588;-68
2023/03/30 10:45:52;;;;;;;6.03;2.13;;;;;;;21.13;89.96;99607.41;5047834;28;20700;-69
2023/03/30 10:48:18;;;;;;;5.47;1.90;;;;;;;18.63;100.00;99747.56;5048924;28;20214;-68
2023/03/30 10:51:11;;;;;;;3.47;1.80;;;;;;;19.92;100.00;99764.84;5048648;28;20193;-69
2023/03/30 10:54:10;;;;;;;5.10;1.93;;;;;;;20.14;85.25;99608.94;5047884;28;20221;-69
2023/03/30 10:56:36;;;;;;;6.10;2.00;;;;;;;19.69;90.72;99621.91;5048143;28;20182;-66
2023/03/30 10:59:19;;;;;;;4.10;2.00;;;;;;;19.16;91.49;99632.50;5050809;28;20208;-69
2023/03/30 11:01:47;;;;;;;6.97;1.80;;;;;;;19.85;89.22;99632.59;5045937;28;20288;-69
2023/03/30 11:04:37;;;;;;;3.60;1.60;;;;;;;20.44;86.91;99584.31;5051055;28;20217;-69
2023/03/30 11:07:10;;;;;;;3.30;1.70;;;;;;;20.53;86.48;99561.38;5044992;28;20194;-67
2023/03/30 11:09:40;;;;;;;4.77;1.87;;;;;;;19.92;85.86;99575.13;5048351;28;20291;-67
2023/03/30 11:12:18;;;;;;;3.07;1.63;;;;;;;19.95;92.12;99631.34;5048017;28;20194;-67
2023/03/30 11:15:06;;;;;;;4.33;1.80;;;;;;;18.86;95.16;99660.34;5050300;28;20325;-66
2023/03/30 11:17:36;;;;;;;2.83;1.53;;;;;;;19.52;88.93;99628.59;5027310;28;20606;-68
2023/03/30 11:20:27;;;;;;;5.37;1.80;;;;;;;20.01;83.63;99566.97;5045687;28;20278;-67
2023/03/30 11:23:04;;;;;;;4.13;1.93;;;;;;;19.35;90.30;99638.78;5047142;28;20566;-69
2023/03/30 11:25:48;;;;;;;3.97;1.70;;;;;;;19.91;92.45;99646.19;5048648;28;20189;-73
2023/03/30 11:28:37;;;;;;;5.63;2.50;;;;;;;20.23;83.04;99575.63;5045015;28;20223;-72
2023/03/30 11:31:13;;;;;;;4.67;1.83;;;;;;;20.37;79.96;99542.13;5043930;28;20186;-73
2023/03/30 11:33:46;;;;;;;4.30;1.63;;;;;;;19.22;87.50;99589.03;5030037;28;20208;-67
2023/03/30 11:36:26;;;;;;;4.57;2.60;;;;;;;19.41;90.19;99630.75;5049366;28;20185;-67
2023/03/30 11:39:06;;;;;;;6.73;2.00;;;;;;;20.06;84.13;99572.81;5047829;28;20662;-69
2023/03/30 11:41:41;;;;;;;4.37;1.90;;;;;;;19.82;87.96;99604.09;5048774;28;20276;-67
2023/03/30 11:44:09;;;;;;;3.43;1.77;;;;;;;19.37;94.69;99649.94;5024575;28;20242;-74